createdAt,value
2023-01-27T00:00:59.382Z,95096.63
2023-01-27T00:03:27.124Z,95097.56
2023-01-27T00:05:54.776Z,95103.78
2023-01-27T00:08:22.427Z,95103.03
2023-01-27T00:11:10.615Z,95096.22
2023-01-27T00:13:38.656Z,95102.38
2023-01-27T00:16:06.981Z,95104.31
2023-01-27T00:18:34.662Z,95107.75
2023-01-27T00:21:19.723Z,95098.44
2023-01-27T00:24:05.117Z,95100.22
2023-01-27T00:26:32.777Z,95102.03
2023-01-27T00:29:01.844Z,95097.75
2023-01-27T00:31:46.917Z,95098.75
2023-01-27T00:34:14.634Z,95103.13
2023-01-27T00:36:43.392Z,95082.25
2023-01-27T00:39:12.647Z,95085.00
2023-01-27T00:41:40.966Z,95081.44
2023-01-27T00:44:12.987Z,95082.94
2023-01-27T00:46:41.194Z,95093.06
2023-01-27T00:49:09.083Z,95083.44
2023-01-27T00:51:36.984Z,95080.84
2023-01-27T00:54:05.200Z,95083.31
2023-01-27T00:56:33.025Z,95084.94
2023-01-27T00:59:00.782Z,95088.38
2023-01-27T01:01:29.960Z,95087.56
2023-01-27T01:03:58.791Z,95099.66
2023-01-27T01:06:26.817Z,95104.03
2023-01-27T01:08:56.766Z,95095.22
2023-01-27T01:11:24.930Z,95100.44
2023-01-27T01:13:55.930Z,95097.03
2023-01-27T01:16:25.397Z,95095.38
2023-01-27T01:18:54.869Z,95104.88
2023-01-27T01:21:22.900Z,95099.66
2023-01-27T01:23:50.741Z,95091.00
2023-01-27T01:26:19.174Z,95101.41
2023-01-27T01:28:47.551Z,95102.38
2023-01-27T01:31:17.738Z,95101.41
2023-01-27T01:33:45.671Z,95099.66
2023-01-27T01:36:16.565Z,95095.22
2023-01-27T01:38:44.347Z,95105.56
2023-01-27T01:41:15.624Z,95097.72
2023-01-27T01:43:43.522Z,95092.50
2023-01-27T01:46:12.194Z,95097.72
2023-01-27T01:48:42.996Z,95087.28
2023-01-27T01:51:13.800Z,95083.69
2023-01-27T01:53:48.525Z,95078.59
2023-01-27T01:56:20.654Z,95074.25
2023-01-27T01:58:49.803Z,95071.63
2023-01-27T02:01:19.404Z,95067.25
2023-01-27T02:03:51.580Z,95064.63
2023-01-27T02:06:19.403Z,95065.44
2023-01-27T02:08:51.140Z,95059.41
2023-01-27T02:11:19.247Z,95073.25
2023-01-27T02:13:47.486Z,95075.06
2023-01-27T02:16:15.334Z,95087.28
2023-01-27T02:18:44.117Z,95075.06
2023-01-27T02:21:11.732Z,95077.69
2023-01-27T02:24:01.272Z,95083.00
2023-01-27T02:26:33.246Z,95081.22
2023-01-27T02:29:04.469Z,95081.22
2023-01-27T02:31:32.535Z,95074.34
2023-01-27T02:34:04.057Z,95075.88
2023-01-27T02:36:34.551Z,95076.84
2023-01-27T02:39:03.142Z,95075.06
2023-01-27T02:41:36.250Z,95077.69
2023-01-27T02:44:04.193Z,95078.47
2023-01-27T02:46:32.225Z,95079.47
2023-01-27T02:48:59.911Z,95069.13
2023-01-27T02:51:27.555Z,95073.25
2023-01-27T02:53:55.230Z,95075.06
2023-01-27T02:56:24.186Z,95074.25
2023-01-27T02:58:53.155Z,95075.06
2023-01-27T03:01:20.858Z,95070.66
2023-01-27T03:03:48.520Z,95077.69
2023-01-27T03:06:16.563Z,95066.41
2023-01-27T03:08:44.714Z,95066.53
2023-01-27T03:11:12.796Z,95066.53
2023-01-27T03:13:40.703Z,95067.34
2023-01-27T03:16:29.562Z,95063.81
2023-01-27T03:18:57.495Z,95061.22
2023-01-27T03:21:25.130Z,95064.63
2023-01-27T03:23:52.877Z,95070.78
2023-01-27T03:26:20.552Z,95072.47
2023-01-27T03:29:08.171Z,95066.41
2023-01-27T03:31:37.328Z,95071.63
2023-01-27T03:34:05.416Z,95068.16
2023-01-27T03:36:50.563Z,95064.75
2023-01-27T03:39:36.072Z,95066.53
2023-01-27T03:42:21.402Z,95061.22
2023-01-27T03:45:06.679Z,95053.47
2023-01-27T03:47:35.727Z,95049.09
2023-01-27T03:50:03.402Z,95058.69
2023-01-27T03:52:31.104Z,95064.75
2023-01-27T03:54:58.734Z,95065.72
2023-01-27T03:57:26.565Z,95053.38
2023-01-27T03:59:54.210Z,95046.47
2023-01-27T04:02:39.329Z,95050.88
2023-01-27T04:05:27.193Z,95054.31
2023-01-27T04:07:54.834Z,95053.63
2023-01-27T04:10:22.436Z,95055.28
2023-01-27T04:12:49.113Z,95066.53
2023-01-27T04:15:18.275Z,95057.91
2023-01-27T04:17:45.898Z,95063.13
2023-01-27T04:20:15.217Z,95055.28
2023-01-27T04:22:42.891Z,95052.81
2023-01-27T04:25:13.201Z,95054.47
2023-01-27T04:27:42.259Z,95053.63
2023-01-27T04:30:11.280Z,95060.50
2023-01-27T04:32:38.911Z,95063.13
2023-01-27T04:35:07.075Z,95061.31
2023-01-27T04:37:36.058Z,95060.50
2023-01-27T04:40:03.688Z,95061.31
2023-01-27T04:42:31.330Z,95056.09
2023-01-27T04:44:59.035Z,95057.91
2023-01-27T04:47:26.651Z,95062.97
2023-01-27T04:49:54.305Z,95060.50
2023-01-27T04:52:23.003Z,95068.34
2023-01-27T04:54:52.013Z,95060.50
2023-01-27T04:57:20.255Z,95066.53
2023-01-27T04:59:47.940Z,95061.31
2023-01-27T05:02:15.681Z,95069.13
2023-01-27T05:04:43.396Z,95063.91
2023-01-27T05:07:11.041Z,95068.16
2023-01-27T05:09:38.661Z,95072.47
2023-01-27T05:12:08.079Z,95065.44
2023-01-27T05:14:35.719Z,95068.88
2023-01-27T05:17:03.494Z,95067.91
2023-01-27T05:19:31.215Z,95068.72
2023-01-27T05:21:58.879Z,95075.59
2023-01-27T05:24:26.547Z,95072.81
2023-01-27T05:26:54.441Z,95072.81
2023-01-27T05:29:23.479Z,95076.09
2023-01-27T05:31:51.165Z,95074.47
2023-01-27T05:34:19.266Z,95082.16
2023-01-27T05:36:46.944Z,95082.97
2023-01-27T05:39:14.638Z,95088.19
2023-01-27T05:41:42.333Z,95089.00
2023-01-27T05:44:12.792Z,95083.81
2023-01-27T05:46:43.292Z,95089.97
2023-01-27T05:49:10.946Z,95102.06
2023-01-27T05:51:40.671Z,95102.88
2023-01-27T05:54:09.117Z,95105.47
2023-01-27T05:56:36.893Z,95102.88
2023-01-27T05:59:04.618Z,95103.03
2023-01-27T06:01:33.939Z,95110.69
2023-01-27T06:04:03.147Z,95100.41
2023-01-27T06:06:32.241Z,95105.63
2023-01-27T06:09:00.808Z,95113.47
2023-01-27T06:11:28.723Z,95116.06
2023-01-27T06:13:57.057Z,95108.25
2023-01-27T06:16:25.184Z,95117.06
2023-01-27T06:18:52.997Z,95118.84
2023-01-27T06:21:22.009Z,95118.69
2023-01-27T06:23:50.162Z,95120.63
2023-01-27T06:26:20.353Z,95128.44
2023-01-27T06:28:48.297Z,95125.84
2023-01-27T06:31:18.382Z,95121.44
2023-01-27T06:33:46.325Z,95123.06
2023-01-27T06:36:15.742Z,95131.72
2023-01-27T06:38:45.685Z,95130.91
2023-01-27T06:41:13.403Z,95128.28
2023-01-27T06:43:41.095Z,95130.09
2023-01-27T06:46:08.884Z,95138.72
2023-01-27T06:48:37.782Z,95142.16
2023-01-27T06:51:05.788Z,95144.78
2023-01-27T06:53:34.859Z,95152.59
2023-01-27T06:56:04.277Z,95157.00
2023-01-27T06:58:32.997Z,95161.25
2023-01-27T07:01:00.779Z,95156.88
2023-01-27T07:03:28.483Z,95159.59
2023-01-27T07:05:56.162Z,95156.88
2023-01-27T07:08:23.870Z,95155.22
2023-01-27T07:10:51.483Z,95151.94
2023-01-27T07:13:20.441Z,95146.72
2023-01-27T07:15:48.844Z,95152.75
2023-01-27T07:18:16.591Z,95154.53
2023-01-27T07:20:44.433Z,95155.38
2023-01-27T07:23:13.124Z,95156.03
2023-01-27T07:25:41.139Z,95154.38
2023-01-27T07:28:08.769Z,95152.59
2023-01-27T07:30:39.320Z,95155.22
2023-01-27T07:33:08.790Z,95150.00
2023-01-27T07:35:37.098Z,95149.03
2023-01-27T07:38:05.195Z,95144.78
2023-01-27T07:40:32.903Z,95146.44
2023-01-27T07:43:01.256Z,95148.22
2023-01-27T07:45:30.140Z,95142.16
2023-01-27T07:48:03.094Z,95145.59
2023-01-27T07:50:31.238Z,95149.16
2023-01-27T07:53:00.806Z,95147.53
2023-01-27T07:55:28.592Z,95140.53
2023-01-27T07:57:56.395Z,95155.22
2023-01-27T08:00:24.690Z,95150.97
2023-01-27T08:02:52.526Z,95147.53
2023-01-27T08:05:22.579Z,95149.16
2023-01-27T08:07:50.533Z,95146.56
2023-01-27T08:10:18.832Z,95155.38
2023-01-27T08:12:47.035Z,95149.16
2023-01-27T08:15:18.740Z,95147.38
2023-01-27T08:17:54.580Z,95157.81
2023-01-27T08:20:23.770Z,95161.25
2023-01-27T08:22:51.478Z,95153.59
2023-01-27T08:25:19.285Z,95156.19
2023-01-27T08:27:50.661Z,95158.66
2023-01-27T08:30:19.305Z,95163.03
2023-01-27T08:32:47.792Z,95165.66
2023-01-27T08:35:15.504Z,95168.25
2023-01-27T08:37:45.156Z,95154.38
2023-01-27T08:40:14.406Z,95161.41
2023-01-27T08:42:42.244Z,95169.25
2023-01-27T08:45:10.304Z,95167.44
2023-01-27T08:47:37.945Z,95172.66
2023-01-27T08:50:06.059Z,95177.88
2023-01-27T08:52:33.723Z,95184.91
2023-01-27T08:55:02.739Z,95198.75
2023-01-27T08:57:32.405Z,95187.50
2023-01-27T09:00:00.223Z,95200.56
2023-01-27T09:02:27.872Z,95190.91
2023-01-27T09:04:55.519Z,95195.34
2023-01-27T09:07:23.199Z,95199.72
2023-01-27T09:09:58.160Z,95197.94
2023-01-27T09:12:33.286Z,95189.13
2023-01-27T09:15:00.892Z,95195.34
2023-01-27T09:17:28.565Z,95196.13
2023-01-27T09:19:56.232Z,95190.91
2023-01-27T09:22:23.848Z,95190.13
2023-01-27T09:24:51.457Z,95194.34
2023-01-27T09:27:27.163Z,95194.34
2023-01-27T09:30:02.387Z,95202.19
2023-01-27T09:32:30.097Z,95206.59
2023-01-27T09:34:57.705Z,95200.41
2023-01-27T09:37:27.906Z,95210.00
2023-01-27T09:40:02.723Z,95204.81
2023-01-27T09:42:50.343Z,95212.63
2023-01-27T09:45:43.090Z,95205.63
2023-01-27T09:48:34.557Z,95209.19
2023-01-27T09:51:10.674Z,95206.59
2023-01-27T09:54:14.485Z,95212.63
2023-01-27T09:56:53.711Z,95211.78
2023-01-27T09:59:44.319Z,95203.19
2023-01-27T10:02:28.197Z,95201.34
2023-01-27T10:05:20.704Z,95206.59
2023-01-27T10:08:14.792Z,95204.13
2023-01-27T10:10:55.175Z,95209.19
2023-01-27T10:13:36.051Z,95210.84
2023-01-27T10:16:20.318Z,95207.41
2023-01-27T10:19:05.296Z,95207.41
2023-01-27T10:21:46.672Z,95205.63
2023-01-27T10:24:27.693Z,95210.84
2023-01-27T10:26:59.902Z,95210.84
2023-01-27T10:29:31.499Z,95208.25
2023-01-27T10:32:07.586Z,95221.13
2023-01-27T10:34:38.237Z,95210.84
2023-01-27T10:37:20.861Z,95209.78
2023-01-27T10:39:57.843Z,95219.56
2023-01-27T10:42:34.815Z,95225.50
2023-01-27T10:45:17.430Z,95231.81
2023-01-27T10:47:58.441Z,95236.50
2023-01-27T10:50:32.172Z,95238.56
2023-01-27T10:53:06.466Z,95233.38
2023-01-27T10:55:42.069Z,95233.13
2023-01-27T10:58:16.116Z,95237.81
2023-01-27T11:01:18.037Z,95233.56
2023-01-27T11:03:40.956Z,95233.31
2023-01-27T11:06:14.891Z,95230.75
2023-01-27T11:08:46.834Z,95228.00
2023-01-27T11:11:35.519Z,95231.44
2023-01-27T11:14:11.288Z,95227.59
2023-01-27T11:16:41.253Z,95234.31
2023-01-27T11:19:17.766Z,95234.03
2023-01-27T11:21:53.042Z,95224.19
2023-01-27T11:24:36.766Z,95232.84
2023-01-27T11:27:14.479Z,95224.06
2023-01-27T11:29:49.013Z,95218.03
2023-01-27T11:32:27.131Z,95226.94
2023-01-27T11:35:02.947Z,95220.78
2023-01-27T11:37:35.099Z,95218.47
2023-01-27T11:40:03.689Z,95215.28
2023-01-27T11:42:33.193Z,95215.28
2023-01-27T11:45:01.715Z,95215.44
2023-01-27T11:47:33.619Z,95213.41
2023-01-27T11:50:02.246Z,95218.31
2023-01-27T11:52:30.164Z,95214.75
2023-01-27T11:55:12.067Z,95212.84
2023-01-27T11:57:44.360Z,95217.22
2023-01-27T12:00:24.045Z,95212.84
2023-01-27T12:03:00.453Z,95221.91
2023-01-27T12:05:32.651Z,95209.03
2023-01-27T12:08:02.523Z,95226.16
2023-01-27T12:10:34.120Z,95213.25
2023-01-27T12:13:08.924Z,95205.69
2023-01-27T12:15:39.052Z,95206.63
2023-01-27T12:18:15.034Z,95200.59
2023-01-27T12:20:45.631Z,95201.66
2023-01-27T12:23:22.868Z,95196.56
2023-01-27T12:25:55.538Z,95200.41
2023-01-27T12:28:29.285Z,95197.50
2023-01-27T12:31:03.520Z,95195.28
2023-01-27T12:33:33.521Z,95202.81
2023-01-27T12:36:05.318Z,95190.47
2023-01-27T12:38:37.189Z,95196.34
2023-01-27T12:41:08.607Z,95192.66
2023-01-27T12:43:51.604Z,95189.88
2023-01-27T12:46:24.139Z,95193.16
2023-01-27T12:48:53.200Z,95197.44
2023-01-27T12:51:22.873Z,95194.81
2023-01-27T12:53:51.661Z,95188.50
2023-01-27T12:56:23.219Z,95195.50
2023-01-27T12:58:58.859Z,95185.91
2023-01-27T13:01:31.819Z,95191.78
2023-01-27T13:04:02.186Z,95187.41
2023-01-27T13:06:42.254Z,95182.97
2023-01-27T13:09:25.292Z,95182.03
2023-01-27T13:11:56.346Z,95182.84
2023-01-27T13:14:24.215Z,95187.91
2023-01-27T13:16:53.336Z,95183.66
2023-01-27T13:19:21.435Z,95184.47
2023-01-27T13:21:52.257Z,95179.09
2023-01-27T13:24:28.392Z,95183.38
2023-01-27T13:26:58.435Z,95179.94
2023-01-27T13:29:31.901Z,95182.41
2023-01-27T13:32:05.869Z,95178.16
2023-01-27T13:34:39.391Z,95176.38
2023-01-27T13:37:13.211Z,95172.94
2023-01-27T13:39:58.675Z,95178.00
2023-01-27T13:42:34.423Z,95178.00
2023-01-27T13:45:05.777Z,95184.03
2023-01-27T13:47:41.509Z,95189.25
2023-01-27T13:50:17.992Z,95187.47
2023-01-27T13:52:47.169Z,95181.44
2023-01-27T13:55:15.811Z,95188.31
2023-01-27T13:57:55.409Z,95192.53
2023-01-27T14:00:28.289Z,95196.94
2023-01-27T14:03:18.945Z,95196.94
2023-01-27T14:06:01.317Z,95198.59
2023-01-27T14:08:49.498Z,95199.41
2023-01-27T14:11:26.422Z,95195.03
2023-01-27T14:14:06.059Z,95198.44
2023-01-27T14:16:42.420Z,95199.28
2023-01-27T14:19:24.917Z,95195.81
2023-01-27T14:21:58.704Z,95196.66
2023-01-27T14:24:37.091Z,95199.28
2023-01-27T14:27:10.471Z,95200.09
2023-01-27T14:29:47.076Z,95194.88
2023-01-27T14:32:26.775Z,95191.28
2023-01-27T14:35:09.767Z,95190.63
2023-01-27T14:37:48.490Z,95193.09
2023-01-27T14:40:21.607Z,95191.28
2023-01-27T14:43:03.835Z,95201.72
2023-01-27T14:45:36.808Z,95203.53
2023-01-27T14:48:14.629Z,95205.16
2023-01-27T14:50:50.873Z,95205.00
2023-01-27T14:53:32.294Z,95209.94
2023-01-27T14:56:06.944Z,95215.84
2023-01-27T14:58:45.765Z,95215.84
2023-01-27T15:01:26.107Z,95214.22
2023-01-27T15:04:32.640Z,95216.81
2023-01-27T15:07:05.070Z,95215.84
2023-01-27T15:09:44.425Z,95214.22
2023-01-27T15:12:48.356Z,95217.78
2023-01-27T15:15:50.464Z,95228.22
2023-01-27T15:18:32.550Z,95229.03
2023-01-27T15:21:18.145Z,95223.81
2023-01-27T15:24:02.511Z,95228.22
2023-01-27T15:26:32.824Z,95237.81
2023-01-27T15:29:01.820Z,95229.19
2023-01-27T15:31:31.021Z,95229.19
2023-01-27T15:34:17.736Z,95243.84
2023-01-27T15:37:02.274Z,95239.47
2023-01-27T15:39:41.379Z,95243.03
2023-01-27T15:42:12.454Z,95243.84
2023-01-27T15:44:42.634Z,95243.84
2023-01-27T15:47:12.893Z,95249.06
2023-01-27T15:49:46.897Z,95246.47
2023-01-27T15:52:29.748Z,95255.13
2023-01-27T15:55:01.075Z,95248.91
2023-01-27T15:57:32.140Z,95258.69
2023-01-27T16:00:06.030Z,95258.56
2023-01-27T16:02:38.001Z,95261.16
2023-01-27T16:05:27.259Z,95261.97
2023-01-27T16:08:00.118Z,95261.97
2023-01-27T16:10:32.252Z,95266.25
2023-01-27T16:13:26.048Z,95266.25
2023-01-27T16:16:32.629Z,95269.66
2023-01-27T16:19:19.209Z,95263.47
2023-01-27T16:21:53.003Z,95266.09
2023-01-27T16:24:34.332Z,95264.47
2023-01-27T16:27:08.772Z,95267.88
2023-01-27T16:29:40.773Z,95264.47
2023-01-27T16:32:17.381Z,95266.25
2023-01-27T16:34:49.173Z,95267.06
2023-01-27T16:37:24.902Z,95263.63
2023-01-27T16:40:00.063Z,95275.69
2023-01-27T16:42:34.076Z,95271.47
2023-01-27T16:45:05.434Z,95274.91
2023-01-27T16:47:42.335Z,95277.50
2023-01-27T16:50:33.923Z,95285.31
2023-01-27T16:53:04.849Z,95278.31
2023-01-27T16:55:32.781Z,95274.75
2023-01-27T16:58:02.651Z,95289.44
2023-01-27T17:00:33.495Z,95287.63
2023-01-27T17:03:06.503Z,95279.81
2023-01-27T17:05:34.308Z,95280.63
2023-01-27T17:08:05.274Z,95285.03
2023-01-27T17:10:35.139Z,95287.63
2023-01-27T17:13:03.216Z,95278.03
2023-01-27T17:15:36.017Z,95284.06
2023-01-27T17:18:09.240Z,95279.81
2023-01-27T17:20:40.465Z,95280.63
2023-01-27T17:23:21.347Z,95285.84
2023-01-27T17:25:50.643Z,95286.69
2023-01-27T17:28:22.536Z,95291.06
2023-01-27T17:30:50.691Z,95292.84
2023-01-27T17:33:21.241Z,95286.84
2023-01-27T17:35:54.664Z,95289.44
2023-01-27T17:38:25.220Z,95301.66
2023-01-27T17:40:54.960Z,95309.50
2023-01-27T17:43:31.868Z,95312.94
2023-01-27T17:46:16.018Z,95312.94
2023-01-27T17:48:48.844Z,95307.72
2023-01-27T17:51:21.374Z,95325.16
2023-01-27T17:53:51.183Z,95308.50
2023-01-27T17:56:23.602Z,95318.94
2023-01-27T17:58:55.724Z,95317.16
2023-01-27T18:01:23.919Z,95320.59
2023-01-27T18:03:55.236Z,95323.22
2023-01-27T18:06:26.153Z,95321.56
2023-01-27T18:08:57.113Z,95330.22
2023-01-27T18:11:31.193Z,95327.59
2023-01-27T18:14:08.419Z,95325.00
2023-01-27T18:16:36.681Z,95332.00
2023-01-27T18:19:09.836Z,95332.00
2023-01-27T18:21:37.725Z,95341.47
2023-01-27T18:24:21.001Z,95332.81
2023-01-27T18:26:50.373Z,95347.66
2023-01-27T18:29:23.092Z,95349.47
2023-01-27T18:31:54.794Z,95345.88
2023-01-27T18:34:26.631Z,95351.09
2023-01-27T18:36:57.019Z,95352.88
2023-01-27T18:39:41.711Z,95352.88
2023-01-27T18:42:14.733Z,95340.66
2023-01-27T18:44:42.384Z,95350.25
2023-01-27T18:47:31.560Z,95345.88
2023-01-27T18:50:02.785Z,95339.69
2023-01-27T18:52:30.635Z,95342.31
2023-01-27T18:55:03.589Z,95340.50
2023-01-27T18:57:31.211Z,95351.75
2023-01-27T18:59:58.819Z,95350.94
2023-01-27T19:02:27.058Z,95345.63
2023-01-27T19:04:54.801Z,95348.22
2023-01-27T19:07:22.427Z,95353.47
2023-01-27T19:09:50.282Z,95357.69
2023-01-27T19:12:19.323Z,95348.91
2023-01-27T19:14:48.400Z,95346.16
2023-01-27T19:17:19.937Z,95348.75
2023-01-27T19:19:47.640Z,95340.94
2023-01-27T19:22:17.918Z,95339.16
2023-01-27T19:24:46.199Z,95336.53
2023-01-27T19:27:15.292Z,95340.78
2023-01-27T19:29:44.406Z,95339.97
2023-01-27T19:32:15.184Z,95346.16
2023-01-27T19:34:42.859Z,95348.75
2023-01-27T19:37:17.487Z,95340.94
2023-01-27T19:39:45.747Z,95347.13
2023-01-27T19:42:15.101Z,95345.31
2023-01-27T19:44:44.069Z,95353.03
2023-01-27T19:47:13.350Z,95351.38
2023-01-27T19:49:41.687Z,95363.47
2023-01-27T19:52:10.069Z,95355.63
2023-01-27T19:54:37.773Z,95351.22
2023-01-27T19:57:06.346Z,95357.25
2023-01-27T19:59:34.009Z,95363.31
2023-01-27T20:02:03.115Z,95358.25
2023-01-27T20:04:30.803Z,95366.06
2023-01-27T20:06:58.415Z,95361.66
2023-01-27T20:09:26.058Z,95365.09
2023-01-27T20:11:53.669Z,95371.28
2023-01-27T20:14:25.744Z,95369.63
2023-01-27T20:16:53.589Z,95370.63
2023-01-27T20:19:23.040Z,95363.59
2023-01-27T20:21:51.127Z,95364.41
2023-01-27T20:24:20.126Z,95364.41
2023-01-27T20:26:48.114Z,95367.19
2023-01-27T20:29:15.785Z,95377.63
2023-01-27T20:31:43.725Z,95368.00
2023-01-27T20:34:11.568Z,95371.41
2023-01-27T20:36:40.595Z,95371.41
2023-01-27T20:39:08.225Z,95373.22
2023-01-27T20:41:35.871Z,95375.84
2023-01-27T20:44:03.552Z,95381.06
2023-01-27T20:46:31.504Z,95384.47
2023-01-27T20:49:00.059Z,95382.84
2023-01-27T20:51:27.748Z,95384.47
2023-01-27T20:53:57.801Z,95376.63
2023-01-27T20:56:25.644Z,95383.50
2023-01-27T20:58:54.230Z,95381.84
2023-01-27T21:01:24.300Z,95379.25
2023-01-27T21:03:52.012Z,95387.91
2023-01-27T21:06:20.455Z,95385.44
2023-01-27T21:08:49.160Z,95388.06
2023-01-27T21:11:21.204Z,95396.72
2023-01-27T21:13:49.037Z,95394.09
2023-01-27T21:16:16.710Z,95403.72
2023-01-27T21:18:45.585Z,95400.13
2023-01-27T21:21:23.862Z,95395.88
2023-01-27T21:23:51.593Z,95408.09
2023-01-27T21:26:21.027Z,95408.09
2023-01-27T21:28:48.923Z,95400.28
2023-01-27T21:31:18.934Z,95401.94
2023-01-27T21:33:48.057Z,95400.28
2023-01-27T21:36:15.687Z,95402.06
2023-01-27T21:38:43.501Z,95411.53
2023-01-27T21:41:13.981Z,95400.28
2023-01-27T21:44:00.369Z,95401.25
2023-01-27T21:46:28.021Z,95403.88
2023-01-27T21:48:55.664Z,95400.28
2023-01-27T21:51:23.296Z,95393.44
2023-01-27T21:53:50.912Z,95402.88
2023-01-27T21:56:18.529Z,95404.66
2023-01-27T21:58:47.533Z,95401.25
2023-01-27T22:01:15.287Z,95411.69
2023-01-27T22:03:42.965Z,95404.66
2023-01-27T22:06:11.421Z,95398.66
2023-01-27T22:08:39.124Z,95413.47
2023-01-27T22:11:09.500Z,95401.25
2023-01-27T22:13:39.008Z,95400.50
2023-01-27T22:16:12.435Z,95396.94
2023-01-27T22:18:40.133Z,95402.06
2023-01-27T22:21:07.782Z,95403.03
2023-01-27T22:23:35.453Z,95396.13
2023-01-27T22:26:03.172Z,95405.72
2023-01-27T22:28:30.819Z,95400.50
2023-01-27T22:31:01.740Z,95396.13
2023-01-27T22:33:32.078Z,95393.66
2023-01-27T22:36:00.920Z,95401.50
2023-01-27T22:38:28.596Z,95395.28
2023-01-27T22:40:57.622Z,95388.44
2023-01-27T22:43:25.409Z,95391.06
2023-01-27T22:45:53.157Z,95394.34
2023-01-27T22:48:20.994Z,95390.06
2023-01-27T22:50:49.988Z,95390.06
2023-01-27T22:53:17.613Z,95385.84
2023-01-27T22:55:45.296Z,95381.44
2023-01-27T22:58:12.942Z,95381.28
2023-01-27T23:00:40.549Z,95379.63
2023-01-27T23:03:08.191Z,95368.41
2023-01-27T23:05:35.809Z,95373.63
2023-01-27T23:08:04.817Z,95386.66
2023-01-27T23:10:32.474Z,95389.28
2023-01-27T23:13:00.098Z,95378.00
2023-01-27T23:15:28.005Z,95376.22
2023-01-27T23:17:55.775Z,95374.56
2023-01-27T23:20:24.137Z,95369.34
2023-01-27T23:22:51.945Z,95384.19
2023-01-27T23:25:20.935Z,95369.50
2023-01-27T23:27:48.562Z,95373.75
2023-01-27T23:30:16.249Z,95374.56
2023-01-27T23:32:45.757Z,95381.56
2023-01-27T23:35:13.732Z,95373.75
2023-01-27T23:37:41.671Z,95385.00
2023-01-27T23:40:10.611Z,95387.63
2023-01-27T23:42:40.095Z,95389.69
2023-01-27T23:45:08.586Z,95393.81
2023-01-27T23:47:36.286Z,95389.84
2023-01-27T23:50:04.065Z,95399.03
2023-01-27T23:52:34.308Z,95394.13
2023-01-27T23:55:01.961Z,95395.63
2023-01-27T23:57:29.598Z,95397.56
2023-01-27T23:59:58.617Z,95399.91
